createdAt,value
2019-02-21T00:03:03.559Z,74.98
2019-02-21T00:08:06.706Z,74.56
2019-02-21T00:13:09.028Z,74.18
2019-02-21T00:18:11.250Z,73.59
2019-02-21T00:23:18.077Z,74.11
2019-02-21T00:28:20.061Z,74.32
2019-02-21T00:33:24.523Z,73.78
2019-02-21T00:38:26.698Z,73.46
2019-02-21T00:43:33.498Z,73.89
2019-02-21T00:48:35.618Z,73.89
2019-02-21T00:53:38.374Z,74.22
2019-02-21T00:58:40.765Z,73.57
2019-02-21T01:03:43.616Z,74.70
2019-02-21T01:08:47.602Z,73.61
2019-02-21T01:13:50.130Z,74.21
2019-02-21T01:18:52.675Z,74.91
2019-02-21T01:23:57.726Z,74.20
2019-02-21T01:28:59.829Z,75.33
2019-02-21T01:34:02.011Z,75.77
2019-02-21T01:39:07.016Z,74.98
2019-02-21T01:44:09.043Z,75.73
2019-02-21T01:49:13.957Z,75.66
2019-02-21T01:54:17.358Z,76.39
2019-02-21T01:59:19.446Z,76.42
2019-02-21T02:04:23.770Z,77.08
2019-02-21T02:09:25.818Z,76.86
2019-02-21T02:14:27.831Z,77.30
2019-02-21T02:19:31.176Z,77.49
2019-02-21T02:24:36.506Z,76.10
2019-02-21T02:29:38.786Z,76.07
2019-02-21T02:34:41.072Z,76.60
2019-02-21T02:39:44.665Z,76.46
2019-02-21T02:44:46.702Z,77.49
2019-02-21T02:49:49.834Z,77.51
2019-02-21T02:54:51.836Z,77.99
2019-02-21T03:00:01.344Z,78.43
2019-02-21T03:05:04.054Z,78.34
2019-02-21T03:10:09.152Z,78.17
2019-02-21T03:15:12.259Z,78.53
2019-02-21T03:20:14.417Z,78.24
2019-02-21T03:25:18.253Z,77.38
2019-02-21T03:30:22.049Z,77.81
2019-02-21T03:35:24.086Z,78.30
2019-02-21T03:40:26.425Z,78.87
2019-02-21T03:45:28.539Z,77.92
2019-02-21T03:50:32.222Z,79.01
2019-02-21T03:55:35.397Z,78.97
2019-02-21T04:00:38.347Z,78.51
2019-02-21T04:05:42.891Z,78.69
2019-02-21T04:10:44.957Z,78.87
2019-02-21T04:15:47.087Z,78.76
2019-02-21T04:20:49.120Z,78.58
2019-02-21T04:25:54.168Z,79.05
2019-02-21T04:30:56.476Z,79.03
2019-02-21T04:35:58.484Z,78.46
2019-02-21T04:41:00.770Z,79.09
2019-02-21T04:46:04.794Z,79.45
2019-02-21T04:51:06.967Z,79.43
2019-02-21T04:56:09.020Z,79.37
2019-02-21T05:01:11.340Z,79.05
2019-02-21T05:06:13.346Z,79.00
2019-02-21T05:11:15.375Z,79.08
2019-02-21T05:16:17.376Z,79.37
2019-02-21T05:21:23.699Z,79.22
2019-02-21T05:26:30.709Z,79.38
2019-02-21T05:31:51.089Z,79.56
2019-02-21T05:37:15.803Z,80.13
2019-02-21T05:42:30.238Z,79.96
2019-02-21T05:47:49.941Z,79.86
2019-02-21T05:53:02.165Z,80.24
2019-02-21T05:58:20.188Z,80.02
2019-02-21T06:03:38.624Z,80.23
2019-02-21T06:08:59.209Z,80.56
2019-02-21T06:14:19.550Z,80.65
2019-02-21T06:19:39.717Z,80.33
2019-02-21T06:24:55.770Z,79.62
2019-02-21T06:30:28.417Z,79.50
2019-02-21T06:35:30.477Z,79.55
2019-02-21T06:40:32.929Z,79.43
2019-02-21T06:45:34.926Z,78.66
2019-02-21T06:50:39.773Z,79.39
2019-02-21T06:55:41.856Z,79.11
2019-02-21T07:00:46.488Z,79.33
2019-02-21T07:05:50.347Z,78.92
2019-02-21T07:10:52.963Z,79.49
2019-02-21T07:15:54.999Z,79.34
2019-02-21T07:20:58.867Z,78.93
2019-02-21T07:26:05.791Z,78.55
2019-02-21T07:31:07.994Z,78.43
2019-02-21T07:36:11.078Z,78.36
2019-02-21T07:41:13.533Z,77.78
2019-02-21T07:46:17.803Z,77.65
2019-02-21T07:51:24.269Z,77.46
2019-02-21T07:56:41.156Z,77.23
2019-02-21T08:01:34.567Z,76.12
2019-02-21T08:06:39.124Z,76.10
2019-02-21T08:11:41.560Z,75.88
2019-02-21T08:16:43.629Z,74.94
2019-02-21T08:21:49.727Z,74.91
2019-02-21T08:26:55.408Z,75.49
2019-02-21T08:31:57.460Z,75.54
2019-02-21T08:36:59.573Z,74.24
2019-02-21T08:42:01.756Z,72.99
2019-02-21T08:47:05.930Z,72.56
2019-02-21T08:52:09.244Z,71.36
2019-02-21T08:57:13.227Z,70.98
2019-02-21T09:02:18.207Z,70.27
2019-02-21T09:07:23.504Z,70.04
2019-02-21T09:12:25.634Z,69.23
2019-02-21T09:17:27.694Z,68.09
2019-02-21T09:22:32.764Z,67.43
2019-02-21T09:27:36.991Z,69.57
2019-02-21T09:32:41.898Z,71.68
2019-02-21T09:37:44.674Z,70.06
2019-02-21T09:42:47.852Z,71.46
2019-02-21T09:47:49.855Z,73.03
2019-02-21T09:52:51.913Z,74.44
2019-02-21T09:57:54.325Z,74.51
2019-02-21T10:02:56.860Z,74.05
2019-02-21T10:07:59.464Z,72.31
2019-02-21T10:13:01.484Z,71.77
2019-02-21T10:18:03.979Z,71.22
2019-02-21T10:23:08.187Z,71.71
2019-02-21T10:28:10.216Z,73.56
2019-02-21T10:33:16.445Z,75.07
2019-02-21T10:38:28.170Z,76.97
2019-02-21T10:43:30.895Z,78.84
2019-02-21T10:48:33.157Z,79.69
2019-02-21T10:53:35.355Z,80.47
2019-02-21T10:58:37.410Z,79.00
2019-02-21T11:03:39.609Z,77.73
2019-02-21T11:08:41.693Z,75.81
2019-02-21T11:13:43.899Z,76.48
2019-02-21T11:18:45.916Z,77.46
2019-02-21T11:23:52.808Z,75.62
2019-02-21T11:28:54.821Z,74.85
2019-02-21T11:33:58.245Z,76.21
2019-02-21T11:39:03.706Z,72.94
2019-02-21T11:44:07.623Z,71.92
2019-02-21T11:49:14.968Z,72.17
2019-02-21T11:54:26.581Z,70.95
2019-02-21T11:59:25.252Z,70.82
2019-02-21T12:04:27.337Z,70.60
2019-02-21T12:09:37.299Z,69.61
2019-02-21T12:14:41.317Z,69.07
2019-02-21T12:19:43.650Z,68.28
2019-02-21T12:24:45.643Z,68.28
2019-02-21T12:29:48.002Z,68.12
2019-02-21T12:34:53.053Z,67.47
2019-02-21T12:39:55.396Z,64.36
2019-02-21T12:44:59.555Z,64.36
2019-02-21T12:50:02.472Z,68.49
2019-02-21T12:55:06.534Z,67.33
2019-02-21T13:00:15.833Z,66.35
2019-02-21T13:05:20.639Z,66.62
2019-02-21T13:10:23.109Z,68.33
2019-02-21T13:15:25.146Z,67.63
2019-02-21T13:20:27.663Z,67.33
2019-02-21T13:25:29.938Z,69.32
2019-02-21T13:30:32.299Z,66.27
2019-02-21T13:35:34.704Z,64.01
2019-02-21T13:40:36.917Z,67.25
2019-02-21T13:45:39.224Z,68.33
2019-02-21T13:50:43.550Z,67.43
2019-02-21T13:55:47.217Z,69.10
2019-02-21T14:00:49.468Z,69.18
2019-02-21T14:05:51.599Z,70.12
2019-02-21T14:10:53.732Z,71.11
2019-02-21T14:15:55.729Z,71.11
2019-02-21T14:21:01.215Z,72.83
2019-02-21T14:26:03.330Z,75.00
2019-02-21T14:31:07.389Z,75.00
2019-02-21T14:36:15.438Z,76.71
2019-02-21T14:41:16.806Z,79.04
2019-02-21T14:46:18.944Z,79.57
2019-02-21T14:51:23.875Z,79.49
2019-02-21T14:56:25.940Z,79.74
2019-02-21T15:01:28.073Z,80.97
2019-02-21T15:06:30.075Z,80.39
2019-02-21T15:11:32.240Z,80.87
2019-02-21T15:16:34.264Z,81.47
2019-02-21T15:21:45.265Z,82.34
2019-02-21T15:26:50.106Z,83.14
2019-02-21T15:31:53.893Z,83.22
2019-02-21T15:36:55.994Z,83.64
2019-02-21T15:41:58.261Z,83.60
2019-02-21T15:47:02.416Z,83.42
2019-02-21T15:52:05.590Z,83.44
2019-02-21T15:57:07.870Z,83.50
2019-02-21T16:02:09.896Z,83.99
2019-02-21T16:07:11.932Z,84.51
2019-02-21T16:12:14.432Z,84.73
2019-02-21T16:17:16.856Z,83.69
2019-02-21T16:22:19.084Z,83.42
2019-02-21T16:27:21.050Z,83.61
2019-02-21T16:32:23.264Z,84.20
2019-02-21T16:37:25.375Z,84.31
2019-02-21T16:42:27.394Z,84.75
2019-02-21T16:47:29.454Z,84.81
2019-02-21T16:52:31.494Z,85.29
2019-02-21T16:57:33.573Z,85.41
2019-02-21T17:02:39.731Z,85.59
2019-02-21T17:07:41.699Z,85.99
2019-02-21T17:12:44.060Z,85.75
2019-02-21T17:17:46.104Z,85.69
2019-02-21T17:22:50.112Z,85.22
2019-02-21T17:27:52.197Z,85.28
2019-02-21T17:32:54.439Z,85.93
2019-02-21T17:37:56.466Z,86.34
2019-02-21T17:42:58.891Z,86.26
2019-02-21T17:48:01.021Z,85.29
2019-02-21T17:53:03.487Z,85.90
2019-02-21T17:58:12.401Z,86.12
2019-02-21T18:03:16.256Z,85.76
2019-02-21T18:08:22.728Z,85.26
2019-02-21T18:13:29.577Z,85.07
2019-02-21T18:18:38.952Z,85.04
2019-02-21T18:23:43.754Z,85.83
2019-02-21T18:28:46.989Z,85.43
2019-02-21T18:33:49.267Z,85.52
2019-02-21T18:38:52.416Z,85.54
2019-02-21T18:43:59.467Z,85.83
2019-02-21T18:49:01.613Z,85.41
2019-02-21T18:54:10.918Z,85.23
2019-02-21T18:59:13.671Z,85.21
2019-02-21T19:04:19.366Z,85.30
2019-02-21T19:09:26.852Z,84.64
2019-02-21T19:14:29.312Z,84.77
2019-02-21T19:19:33.758Z,84.69
2019-02-21T19:24:37.188Z,84.47
2019-02-21T19:29:39.632Z,84.36
2019-02-21T19:34:41.630Z,83.92
2019-02-21T19:39:47.402Z,83.40
2019-02-21T19:44:50.043Z,83.76
2019-02-21T19:49:54.523Z,82.67
2019-02-21T19:54:59.015Z,83.34
2019-02-21T20:00:02.893Z,83.51
2019-02-21T20:05:08.876Z,83.27
2019-02-21T20:10:11.849Z,83.61
2019-02-21T20:15:14.680Z,83.68
2019-02-21T20:20:18.260Z,83.01
2019-02-21T20:25:22.563Z,83.32
2019-02-21T20:30:26.611Z,84.20
2019-02-21T20:35:31.289Z,83.77
2019-02-21T20:40:34.755Z,83.52
2019-02-21T20:45:36.708Z,82.99
2019-02-21T20:50:40.203Z,83.21
2019-02-21T20:55:44.008Z,83.31
2019-02-21T21:00:46.267Z,83.83
2019-02-21T21:05:48.789Z,82.93
2019-02-21T21:10:50.924Z,83.43
2019-02-21T21:15:55.819Z,83.22
2019-02-21T21:20:59.133Z,83.37
2019-02-21T21:26:03.332Z,83.34
2019-02-21T21:31:05.667Z,83.32
2019-02-21T21:36:08.445Z,83.15
2019-02-21T21:41:10.701Z,83.29
2019-02-21T21:46:13.497Z,83.93
2019-02-21T21:51:15.603Z,83.62
2019-02-21T21:56:17.613Z,83.45
2019-02-21T22:01:19.913Z,83.11
2019-02-21T22:06:22.141Z,83.83
2019-02-21T22:11:24.415Z,83.45
2019-02-21T22:16:26.429Z,83.79
2019-02-21T22:21:28.457Z,83.82
2019-02-21T22:26:30.467Z,83.97
2019-02-21T22:31:32.509Z,83.65
2019-02-21T22:36:34.510Z,84.14
2019-02-21T22:41:38.175Z,83.64
2019-02-21T22:46:40.197Z,83.96
2019-02-21T22:51:42.613Z,83.25
2019-02-21T22:56:44.621Z,83.67
2019-02-21T23:01:47.521Z,83.82
2019-02-21T23:07:26.480Z,84.39
2019-02-21T23:12:31.352Z,84.44
2019-02-21T23:17:33.344Z,84.19
2019-02-21T23:22:35.721Z,84.08
2019-02-21T23:27:39.528Z,84.01
2019-02-21T23:32:41.584Z,84.18
2019-02-21T23:37:43.703Z,83.79
2019-02-21T23:42:45.985Z,83.90
2019-02-21T23:47:49.928Z,84.07
2019-02-21T23:52:52.296Z,83.89
2019-02-21T23:57:54.464Z,84.21
